sensor_id;sensor_type;location;lat;lon;timestamp;temperature;humidity
15184;DHT22;7693;49.266;7.104;2023-10-19T05:11:47;14.90;99.90
15184;DHT22;7693;49.266;7.104;2023-10-19T05:14:13;14.90;99.90
15184;DHT22;7693;49.266;7.104;2023-10-19T05:16:40;14.80;99.90
15184;DHT22;7693;49.266;7.104;2023-10-19T05:19:06;14.90;99.90
15184;DHT22;7693;49.266;7.104;2023-10-19T05:21:31;14.90;99.90
15184;DHT22;7693;49.266;7.104;2023-10-19T05:23:57;14.90;99.90
15184;DHT22;7693;49.266;7.104;2023-10-19T05:26:26;14.90;99.90
15184;DHT22;7693;49.266;7.104;2023-10-19T05:28:51;14.90;99.90
15184;DHT22;7693;49.266;7.104;2023-10-19T05:31:17;14.90;99.90
15184;DHT22;7693;49.266;7.104;2023-10-19T05:33:43;14.90;99.90
15184;DHT22;7693;49.266;7.104;2023-10-19T05:36:08;14.90;99.90
15184;DHT22;7693;49.266;7.104;2023-10-19T05:38:34;14.90;99.90
15184;DHT22;7693;49.266;7.104;2023-10-19T05:41:00;14.90;99.90
15184;DHT22;7693;49.266;7.104;2023-10-19T05:43:26;14.90;99.90
15184;DHT22;7693;49.266;7.104;2023-10-19T05:45:52;14.80;99.90
15184;DHT22;7693;49.266;7.104;2023-10-19T05:48:17;14.80;99.90
15184;DHT22;7693;49.266;7.104;2023-10-19T05:50:43;14.80;99.90
15184;DHT22;7693;49.266;7.104;2023-10-19T05:53:09;14.80;99.90
15184;DHT22;7693;49.266;7.104;2023-10-19T05:55:35;14.80;99.90
15184;DHT22;7693;49.266;7.104;2023-10-19T05:58:02;14.80;99.90
15184;DHT22;7693;49.266;7.104;2023-10-19T06:00:30;14.80;99.90
15184;DHT22;7693;49.266;7.104;2023-10-19T06:02:56;14.80;99.90
15184;DHT22;7693;49.266;7.104;2023-10-19T06:05:23;14.70;99.90
15184;DHT22;7693;49.266;7.104;2023-10-19T06:07:50;14.70;99.90
15184;DHT22;7693;49.266;7.104;2023-10-19T06:10:17;14.70;99.90
15184;DHT22;7693;49.266;7.104;2023-10-19T06:12:45;14.70;99.90
15184;DHT22;7693;49.266;7.104;2023-10-19T06:15:12;14.70;99.90
15184;DHT22;7693;49.266;7.104;2023-10-19T06:17:41;14.70;99.90
15184;DHT22;7693;49.266;7.104;2023-10-19T06:20:11;14.70;99.90
15184;DHT22;7693;49.266;7.104;2023-10-19T06:22:53;14.70;99.90
15184;DHT22;7693;49.266;7.104;2023-10-19T06:25:23;14.70;99.90
15184;DHT22;7693;49.266;7.104;2023-10-19T06:27:50;14.70;99.90
15184;DHT22;7693;49.266;7.104;2023-10-19T06:30:17;14.70;99.90
15184;DHT22;7693;49.266;7.104;2023-10-19T06:32:54;14.70;99.90
15184;DHT22;7693;49.266;7.104;2023-10-19T06:35:21;14.70;99.90
15184;DHT22;7693;49.266;7.104;2023-10-19T06:37:47;14.70;99.90
15184;DHT22;7693;49.266;7.104;2023-10-19T13:10:03;16.50;99.90
15184;DHT22;7693;49.266;7.104;2023-10-19T13:12:31;16.50;99.90
15184;DHT22;7693;49.266;7.104;2023-10-19T13:14:57;16.50;99.90
15184;DHT22;7693;49.266;7.104;2023-10-19T13:17:23;16.50;99.90
15184;DHT22;7693;49.266;7.104;2023-10-19T13:19:50;16.50;99.90
15184;DHT22;7693;49.266;7.104;2023-10-19T13:22:20;16.50;99.90
15184;DHT22;7693;49.266;7.104;2023-10-19T13:24:47;16.50;99.90
15184;DHT22;7693;49.266;7.104;2023-10-19T13:27:12;16.60;99.90
15184;DHT22;7693;49.266;7.104;2023-10-19T13:29:39;16.60;99.90
15184;DHT22;7693;49.266;7.104;2023-10-19T13:32:07;16.60;99.90
15184;DHT22;7693;49.266;7.104;2023-10-19T13:34:32;16.60;99.90
15184;DHT22;7693;49.266;7.104;2023-10-19T13:36:58;16.60;99.90
15184;DHT22;7693;49.266;7.104;2023-10-19T13:39:24;16.70;99.90
15184;DHT22;7693;49.266;7.104;2023-10-19T13:41:53;16.70;99.90
15184;DHT22;7693;49.266;7.104;2023-10-19T13:44:19;16.70;99.90
15184;DHT22;7693;49.266;7.104;2023-10-19T13:46:47;16.70;99.90
15184;DHT22;7693;49.266;7.104;2023-10-19T13:49:12;16.70;99.90
15184;DHT22;7693;49.266;7.104;2023-10-19T13:51:38;16.70;99.90
15184;DHT22;7693;49.266;7.104;2023-10-19T13:54:05;16.70;99.90
15184;DHT22;7693;49.266;7.104;2023-10-19T13:56:31;16.70;99.90
15184;DHT22;7693;49.266;7.104;2023-10-19T13:58:57;16.70;99.90
15184;DHT22;7693;49.266;7.104;2023-10-19T14:01:24;16.70;99.90
15184;DHT22;7693;49.266;7.104;2023-10-19T14:03:54;16.80;99.90
15184;DHT22;7693;49.266;7.104;2023-10-19T14:06:22;16.90;99.90
15184;DHT22;7693;49.266;7.104;2023-10-19T14:08:50;17.00;99.90
15184;DHT22;7693;49.266;7.104;2023-10-19T14:11:17;17.10;99.90
15184;DHT22;7693;49.266;7.104;2023-10-19T14:13:42;17.10;99.90
15184;DHT22;7693;49.266;7.104;2023-10-19T14:16:09;17.10;99.90
15184;DHT22;7693;49.266;7.104;2023-10-19T14:18:38;17.10;99.90
15184;DHT22;7693;49.266;7.104;2023-10-19T14:21:24;17.10;99.90
15184;DHT22;7693;49.266;7.104;2023-10-19T14:23:53;17.10;99.90
15184;DHT22;7693;49.266;7.104;2023-10-19T14:26:19;17.10;99.90
15184;DHT22;7693;49.266;7.104;2023-10-19T14:28:45;17.10;99.90
15184;DHT22;7693;49.266;7.104;2023-10-19T14:31:11;17.10;99.90
15184;DHT22;7693;49.266;7.104;2023-10-19T14:33:37;17.00;99.90
15184;DHT22;7693;49.266;7.104;2023-10-19T14:36:06;17.00;99.90
15184;DHT22;7693;49.266;7.104;2023-10-19T14:38:32;17.10;99.90
15184;DHT22;7693;49.266;7.104;2023-10-19T14:40:59;17.10;99.90
15184;DHT22;7693;49.266;7.104;2023-10-19T14:43:24;17.20;99.90
15184;DHT22;7693;49.266;7.104;2023-10-19T14:45:55;17.20;99.90
15184;DHT22;7693;49.266;7.104;2023-10-19T14:48:22;17.20;99.90
15184;DHT22;7693;49.266;7.104;2023-10-19T14:50:49;17.20;99.90
15184;DHT22;7693;49.266;7.104;2023-10-19T14:53:17;17.20;99.90
15184;DHT22;7693;49.266;7.104;2023-10-19T14:55:44;17.20;99.90
15184;DHT22;7693;49.266;7.104;2023-10-19T14:58:12;17.10;99.90
15184;DHT22;7693;49.266;7.104;2023-10-19T15:00:38;17.10;99.90
15184;DHT22;7693;49.266;7.104;2023-10-19T15:03:08;17.00;99.90
15184;DHT22;7693;49.266;7.104;2023-10-19T15:05:34;17.00;99.90
15184;DHT22;7693;49.266;7.104;2023-10-19T15:08:04;16.90;99.90
15184;DHT22;7693;49.266;7.104;2023-10-19T15:10:34;16.90;99.90
15184;DHT22;7693;49.266;7.104;2023-10-19T15:13:00;16.80;99.90
15184;DHT22;7693;49.266;7.104;2023-10-19T15:15:26;16.80;99.90
15184;DHT22;7693;49.266;7.104;2023-10-19T15:17:52;16.80;99.90
15184;DHT22;7693;49.266;7.104;2023-10-19T15:20:21;16.80;99.90
15184;DHT22;7693;49.266;7.104;2023-10-19T15:22:48;16.80;99.90
15184;DHT22;7693;49.266;7.104;2023-10-19T15:25:14;16.80;99.90
15184;DHT22;7693;49.266;7.104;2023-10-19T15:27:43;16.70;99.90
15184;DHT22;7693;49.266;7.104;2023-10-19T15:30:11;16.70;99.90
15184;DHT22;7693;49.266;7.104;2023-10-19T15:32:41;16.70;99.90
15184;DHT22;7693;49.266;7.104;2023-10-19T15:35:11;16.70;99.90
15184;DHT22;7693;49.266;7.104;2023-10-19T15:37:40;16.70;99.90
15184;DHT22;7693;49.266;7.104;2023-10-19T15:40:07;16.70;99.90
15184;DHT22;7693;49.266;7.104;2023-10-19T15:42:41;16.70;99.90
15184;DHT22;7693;49.266;7.104;2023-10-19T15:45:13;16.70;99.90
15184;DHT22;7693;49.266;7.104;2023-10-19T15:47:40;16.60;99.90
15184;DHT22;7693;49.266;7.104;2023-10-19T15:50:10;16.60;99.90
15184;DHT22;7693;49.266;7.104;2023-10-19T15:52:38;16.60;99.90
15184;DHT22;7693;49.266;7.104;2023-10-19T15:55:14;16.50;99.90
15184;DHT22;7693;49.266;7.104;2023-10-19T15:57:41;16.50;99.90
15184;DHT22;7693;49.266;7.104;2023-10-19T16:00:08;16.50;99.90
15184;DHT22;7693;49.266;7.104;2023-10-19T16:02:39;16.40;99.90
15184;DHT22;7693;49.266;7.104;2023-10-19T16:05:05;16.40;99.90
15184;DHT22;7693;49.266;7.104;2023-10-19T16:07:31;16.40;99.90
15184;DHT22;7693;49.266;7.104;2023-10-19T16:09:57;16.30;99.90
15184;DHT22;7693;49.266;7.104;2023-10-19T16:12:23;16.30;99.90
15184;DHT22;7693;49.266;7.104;2023-10-19T16:14:48;16.30;99.90
15184;DHT22;7693;49.266;7.104;2023-10-19T16:17:14;16.30;99.90
15184;DHT22;7693;49.266;7.104;2023-10-19T16:19:42;16.30;99.90
15184;DHT22;7693;49.266;7.104;2023-10-19T16:22:08;16.20;99.90
15184;DHT22;7693;49.266;7.104;2023-10-19T16:24:33;16.20;99.90
15184;DHT22;7693;49.266;7.104;2023-10-19T16:26:59;16.10;99.90
15184;DHT22;7693;49.266;7.104;2023-10-19T16:29:25;16.10;99.90
15184;DHT22;7693;49.266;7.104;2023-10-19T16:31:53;16.10;99.90
15184;DHT22;7693;49.266;7.104;2023-10-19T16:34:24;16.00;99.90
15184;DHT22;7693;49.266;7.104;2023-10-19T16:36:50;16.00;99.90
15184;DHT22;7693;49.266;7.104;2023-10-19T16:39:16;16.00;99.90
15184;DHT22;7693;49.266;7.104;2023-10-19T16:41:46;16.00;99.90
15184;DHT22;7693;49.266;7.104;2023-10-19T16:44:12;16.00;99.90
15184;DHT22;7693;49.266;7.104;2023-10-19T16:46:38;15.90;99.90
15184;DHT22;7693;49.266;7.104;2023-10-19T16:49:04;15.90;99.90
15184;DHT22;7693;49.266;7.104;2023-10-19T16:51:31;15.90;99.90
15184;DHT22;7693;49.266;7.104;2023-10-19T16:53:57;15.90;99.90
15184;DHT22;7693;49.266;7.104;2023-10-19T16:56:23;15.90;99.90
15184;DHT22;7693;49.266;7.104;2023-10-19T16:58:49;15.80;99.90
15184;DHT22;7693;49.266;7.104;2023-10-19T17:01:18;15.80;99.90
15184;DHT22;7693;49.266;7.104;2023-10-19T17:03:44;15.80;99.90
15184;DHT22;7693;49.266;7.104;2023-10-19T17:06:10;15.80;99.90
15184;DHT22;7693;49.266;7.104;2023-10-19T17:08:37;15.80;99.90
15184;DHT22;7693;49.266;7.104;2023-10-19T17:11:03;15.70;99.90
15184;DHT22;7693;49.266;7.104;2023-10-19T17:13:30;15.70;99.90
15184;DHT22;7693;49.266;7.104;2023-10-19T17:15:56;15.70;99.90
15184;DHT22;7693;49.266;7.104;2023-10-19T17:18:22;15.70;99.90
15184;DHT22;7693;49.266;7.104;2023-10-19T17:20:48;15.70;99.90
15184;DHT22;7693;49.266;7.104;2023-10-19T17:23:14;15.70;99.90
15184;DHT22;7693;49.266;7.104;2023-10-19T17:25:40;15.70;99.90
15184;DHT22;7693;49.266;7.104;2023-10-19T17:28:06;15.70;99.90
15184;DHT22;7693;49.266;7.104;2023-10-19T17:30:33;15.70;99.90
15184;DHT22;7693;49.266;7.104;2023-10-19T17:33:00;15.70;99.90
15184;DHT22;7693;49.266;7.104;2023-10-19T17:35:26;15.60;99.90
15184;DHT22;7693;49.266;7.104;2023-10-19T17:37:51;15.60;99.90
15184;DHT22;7693;49.266;7.104;2023-10-19T17:40:17;15.60;99.90
15184;DHT22;7693;49.266;7.104;2023-10-19T17:42:43;15.60;99.90
15184;DHT22;7693;49.266;7.104;2023-10-19T17:45:09;15.60;99.90
15184;DHT22;7693;49.266;7.104;2023-10-19T17:47:35;15.60;99.90
15184;DHT22;7693;49.266;7.104;2023-10-19T17:50:01;15.60;99.90
15184;DHT22;7693;49.266;7.104;2023-10-19T17:52:27;15.60;99.90
15184;DHT22;7693;49.266;7.104;2023-10-19T17:54:54;15.60;99.90
15184;DHT22;7693;49.266;7.104;2023-10-19T17:57:20;15.60;99.90
15184;DHT22;7693;49.266;7.104;2023-10-19T17:59:46;15.60;99.90
15184;DHT22;7693;49.266;7.104;2023-10-19T18:02:12;15.60;99.90
15184;DHT22;7693;49.266;7.104;2023-10-19T18:04:38;15.60;99.90
15184;DHT22;7693;49.266;7.104;2023-10-19T18:07:03;15.60;99.90
15184;DHT22;7693;49.266;7.104;2023-10-19T18:09:30;15.60;99.90
15184;DHT22;7693;49.266;7.104;2023-10-19T18:11:57;15.60;99.90
15184;DHT22;7693;49.266;7.104;2023-10-19T18:14:23;15.50;99.90
15184;DHT22;7693;49.266;7.104;2023-10-19T18:16:48;15.60;99.90
15184;DHT22;7693;49.266;7.104;2023-10-19T18:19:16;15.50;99.90
15184;DHT22;7693;49.266;7.104;2023-10-19T18:21:43;15.50;99.90
15184;DHT22;7693;49.266;7.104;2023-10-19T18:24:09;15.50;99.90
15184;DHT22;7693;49.266;7.104;2023-10-19T18:26:35;15.50;99.90
15184;DHT22;7693;49.266;7.104;2023-10-19T18:29:02;15.50;99.90
15184;DHT22;7693;49.266;7.104;2023-10-19T18:31:29;15.50;99.90
15184;DHT22;7693;49.266;7.104;2023-10-19T18:33:56;15.50;99.90
15184;DHT22;7693;49.266;7.104;2023-10-19T18:36:25;15.50;99.90
15184;DHT22;7693;49.266;7.104;2023-10-19T18:38:55;15.50;99.90
15184;DHT22;7693;49.266;7.104;2023-10-19T18:41:22;15.50;99.90
15184;DHT22;7693;49.266;7.104;2023-10-19T18:43:48;15.50;99.90
15184;DHT22;7693;49.266;7.104;2023-10-19T18:46:16;15.50;99.90
15184;DHT22;7693;49.266;7.104;2023-10-19T18:48:42;15.50;99.90
15184;DHT22;7693;49.266;7.104;2023-10-19T18:51:07;15.50;99.90
15184;DHT22;7693;49.266;7.104;2023-10-19T18:53:35;15.50;99.90
15184;DHT22;7693;49.266;7.104;2023-10-19T18:56:02;15.50;99.90
15184;DHT22;7693;49.266;7.104;2023-10-19T18:58:29;15.50;99.90
15184;DHT22;7693;49.266;7.104;2023-10-19T19:00:59;15.50;99.90
15184;DHT22;7693;49.266;7.104;2023-10-19T19:03:29;15.50;99.90
15184;DHT22;7693;49.266;7.104;2023-10-19T19:05:58;15.50;99.90
15184;DHT22;7693;49.266;7.104;2023-10-19T19:08:29;15.40;99.90
15184;DHT22;7693;49.266;7.104;2023-10-19T19:10:55;15.50;99.90
15184;DHT22;7693;49.266;7.104;2023-10-19T19:13:22;15.50;99.90
15184;DHT22;7693;49.266;7.104;2023-10-19T19:15:52;15.50;99.90
15184;DHT22;7693;49.266;7.104;2023-10-19T19:18:18;15.50;99.90
15184;DHT22;7693;49.266;7.104;2023-10-19T19:20:45;15.50;99.90
15184;DHT22;7693;49.266;7.104;2023-10-19T19:23:11;15.50;99.90
15184;DHT22;7693;49.266;7.104;2023-10-19T19:25:37;15.50;99.90
15184;DHT22;7693;49.266;7.104;2023-10-19T19:28:05;15.50;99.90
15184;DHT22;7693;49.266;7.104;2023-10-19T19:30:30;15.50;99.90
15184;DHT22;7693;49.266;7.104;2023-10-19T19:32:56;15.50;99.90
15184;DHT22;7693;49.266;7.104;2023-10-19T19:35:22;15.50;99.90
15184;DHT22;7693;49.266;7.104;2023-10-19T19:37:48;15.50;99.90
15184;DHT22;7693;49.266;7.104;2023-10-19T19:40:13;15.50;99.90
15184;DHT22;7693;49.266;7.104;2023-10-19T19:42:40;15.50;99.90
15184;DHT22;7693;49.266;7.104;2023-10-19T19:45:12;15.50;99.90
15184;DHT22;7693;49.266;7.104;2023-10-19T19:47:42;15.50;99.90
15184;DHT22;7693;49.266;7.104;2023-10-19T19:50:11;15.50;99.90
15184;DHT22;7693;49.266;7.104;2023-10-19T19:52:37;15.50;99.90
15184;DHT22;7693;49.266;7.104;2023-10-19T19:55:10;15.50;99.90
15184;DHT22;7693;49.266;7.104;2023-10-19T19:57:39;15.50;99.90
15184;DHT22;7693;49.266;7.104;2023-10-19T20:00:06;15.50;99.90
15184;DHT22;7693;49.266;7.104;2023-10-19T20:02:43;15.50;99.90
15184;DHT22;7693;49.266;7.104;2023-10-19T20:05:13;15.50;99.90
15184;DHT22;7693;49.266;7.104;2023-10-19T20:07:39;15.50;99.90
15184;DHT22;7693;49.266;7.104;2023-10-19T20:10:06;15.50;99.90
15184;DHT22;7693;49.266;7.104;2023-10-19T20:12:37;15.50;99.90
15184;DHT22;7693;49.266;7.104;2023-10-19T20:15:04;15.40;99.90
15184;DHT22;7693;49.266;7.104;2023-10-19T20:17:31;15.40;99.90
15184;DHT22;7693;49.266;7.104;2023-10-19T20:19:57;15.50;99.90
15184;DHT22;7693;49.266;7.104;2023-10-19T20:22:23;15.40;99.90
15184;DHT22;7693;49.266;7.104;2023-10-19T20:24:49;15.40;99.90
15184;DHT22;7693;49.266;7.104;2023-10-19T20:27:15;15.40;99.90
15184;DHT22;7693;49.266;7.104;2023-10-19T20:29:41;15.40;99.90
15184;DHT22;7693;49.266;7.104;2023-10-19T20:32:07;15.40;99.90
15184;DHT22;7693;49.266;7.104;2023-10-19T20:34:32;15.40;99.90
15184;DHT22;7693;49.266;7.104;2023-10-19T20:36:58;15.40;99.90
15184;DHT22;7693;49.266;7.104;2023-10-19T20:39:24;15.40;99.90
15184;DHT22;7693;49.266;7.104;2023-10-19T20:41:51;15.40;99.90
15184;DHT22;7693;49.266;7.104;2023-10-19T20:44:19;15.40;99.90
15184;DHT22;7693;49.266;7.104;2023-10-19T20:46:49;15.40;99.90
15184;DHT22;7693;49.266;7.104;2023-10-19T20:49:16;15.40;99.90
15184;DHT22;7693;49.266;7.104;2023-10-19T20:51:42;15.40;99.90
15184;DHT22;7693;49.266;7.104;2023-10-19T20:54:07;15.40;99.90
15184;DHT22;7693;49.266;7.104;2023-10-19T20:56:37;15.50;99.90
15184;DHT22;7693;49.266;7.104;2023-10-19T20:59:03;15.40;99.90
15184;DHT22;7693;49.266;7.104;2023-10-19T21:01:29;15.50;99.90
15184;DHT22;7693;49.266;7.104;2023-10-19T21:03:54;15.50;99.90
15184;DHT22;7693;49.266;7.104;2023-10-19T21:06:20;15.50;99.90
15184;DHT22;7693;49.266;7.104;2023-10-19T21:08:46;15.40;99.90
15184;DHT22;7693;49.266;7.104;2023-10-19T21:11:14;15.50;99.90
15184;DHT22;7693;49.266;7.104;2023-10-19T21:13:40;15.50;99.90
15184;DHT22;7693;49.266;7.104;2023-10-19T21:16:09;15.50;99.90
15184;DHT22;7693;49.266;7.104;2023-10-19T21:18:38;15.50;99.90
15184;DHT22;7693;49.266;7.104;2023-10-19T21:21:06;15.50;99.90
15184;DHT22;7693;49.266;7.104;2023-10-19T21:23:32;15.50;99.90
15184;DHT22;7693;49.266;7.104;2023-10-19T21:25:58;15.50;99.90
15184;DHT22;7693;49.266;7.104;2023-10-19T21:28:24;15.50;99.90
15184;DHT22;7693;49.266;7.104;2023-10-19T21:30:50;15.40;99.90
15184;DHT22;7693;49.266;7.104;2023-10-19T21:33:15;15.40;99.90
15184;DHT22;7693;49.266;7.104;2023-10-19T21:35:41;15.40;99.90
15184;DHT22;7693;49.266;7.104;2023-10-19T21:38:07;15.40;99.90
15184;DHT22;7693;49.266;7.104;2023-10-19T21:40:33;15.40;99.90
15184;DHT22;7693;49.266;7.104;2023-10-19T21:42:58;15.40;99.90
15184;DHT22;7693;49.266;7.104;2023-10-19T21:45:24;15.50;99.90
15184;DHT22;7693;49.266;7.104;2023-10-19T21:47:49;15.50;99.90
15184;DHT22;7693;49.266;7.104;2023-10-19T21:50:15;15.50;99.90
15184;DHT22;7693;49.266;7.104;2023-10-19T21:52:41;15.50;99.90
15184;DHT22;7693;49.266;7.104;2023-10-19T21:55:07;15.50;99.90
15184;DHT22;7693;49.266;7.104;2023-10-19T21:57:33;15.50;99.90
15184;DHT22;7693;49.266;7.104;2023-10-19T21:59:59;15.50;99.90
15184;DHT22;7693;49.266;7.104;2023-10-19T22:02:25;15.50;99.90
15184;DHT22;7693;49.266;7.104;2023-10-19T22:04:50;15.50;99.90
15184;DHT22;7693;49.266;7.104;2023-10-19T22:07:16;15.50;99.90
15184;DHT22;7693;49.266;7.104;2023-10-19T22:09:42;15.50;99.90
15184;DHT22;7693;49.266;7.104;2023-10-19T22:12:08;15.40;99.90
